Time;durP1;ratioP1;P1;durP2;ratioP2;P2;SDS_P1;SDS_P2;PMS_P1;PMS_P2;Temp;Humidity;BMP_temperature;BMP_pressure;BME280_temperature;BME280_humidity;BME280_pressure;Samples;Min_cycle;Max_cycle;Signal;HPM_P1;HPM_P2
2021/05/25 00:01:52;;;;;;;;;;;;;;;14.67;72.12;102231.65;1772580;81;21356;-81
2021/05/25 00:04:24;;;;;;;4.30;1.82;;;;;;;14.62;72.08;102238.56;1770060;81;20329;-81
2021/05/25 00:06:57;;;;;;;2.52;1.50;;;;;;;14.61;72.31;102238.81;1770406;81;21704;-83
2021/05/25 00:09:30;;;;;;;3.03;2.00;;;;;;;14.61;72.48;102234.05;1770222;81;21324;-79
2021/05/25 00:12:02;;;;;;;7.37;2.92;;;;;;;14.63;72.46;102233.27;1771029;81;21340;-73
2021/05/25 00:14:37;;;;;;;6.75;1.55;;;;;;;14.64;72.43;102226.58;1770285;81;21847;-82
2021/05/25 00:17:10;;;;;;;4.67;2.10;;;;;;;14.65;72.32;102225.47;1769892;81;21379;-77
2021/05/25 00:19:42;;;;;;;4.83;1.90;;;;;;;14.61;72.50;102229.85;1769906;81;21297;-81
2021/05/25 00:22:17;;;;;;;3.40;1.72;;;;;;;14.62;72.56;102228.78;1770225;81;21344;-80
2021/05/25 00:24:50;;;;;;;7.45;1.98;;;;;;;14.59;72.67;102227.00;1768813;81;21337;-80
2021/05/25 00:27:22;;;;;;;5.92;2.52;;;;;;;14.53;72.78;102220.47;1767914;81;21187;-74
2021/05/25 00:29:55;;;;;;;4.97;2.58;;;;;;;14.51;72.87;102219.89;1767704;81;21361;-80
2021/05/25 00:32:27;;;;;;;23.32;3.10;;;;;;;14.49;72.91;102210.88;1767709;81;21334;-78
2021/05/25 00:35:00;;;;;;;10.73;3.20;;;;;;;14.44;73.07;102202.95;1767997;81;21195;-80
2021/05/25 00:37:33;;;;;;;7.70;3.30;;;;;;;14.41;73.29;102207.09;1767835;81;21230;-82
2021/05/25 00:40:07;;;;;;;6.78;2.87;;;;;;;14.40;73.44;102212.92;1767806;81;21301;-78
2021/05/25 00:42:41;;;;;;;10.70;3.22;;;;;;;14.39;73.44;102216.81;1767653;81;21352;-79
2021/05/25 00:45:15;;;;;;;7.20;3.67;;;;;;;14.36;73.47;102220.13;1767708;81;21377;-79
2021/05/25 00:47:48;;;;;;;5.87;3.10;;;;;;;14.33;73.57;102218.67;1767874;81;21349;-81
2021/05/25 00:50:28;;;;;;;9.10;3.70;;;;;;;14.31;73.72;102220.84;1767906;81;21178;-79
2021/05/25 00:53:03;;;;;;;12.28;4.55;;;;;;;14.28;74.05;102224.69;1767905;81;21420;-71
2021/05/25 00:55:39;;;;;;;16.55;5.47;;;;;;;14.24;74.25;102232.72;1767837;81;21329;-79
2021/05/25 00:58:12;;;;;;;8.35;5.50;;;;;;;14.26;74.58;102225.48;1767806;81;21321;-77
2021/05/25 01:00:47;;;;;;;9.90;4.28;;;;;;;14.29;74.73;102214.66;1767976;81;21835;-79
2021/05/25 01:03:22;;;;;;;6.50;3.27;;;;;;;14.31;75.02;102210.23;1767944;81;21372;-70
2021/05/25 01:05:57;;;;;;;7.35;5.20;;;;;;;14.28;75.36;102203.19;1767781;81;21337;-80
2021/05/25 01:08:29;;;;;;;16.15;14.23;;;;;;;14.27;75.68;102198.70;1767877;81;21249;-77
2021/05/25 01:11:08;;;;;;;29.63;23.90;;;;;;;14.30;75.89;102195.97;1767914;80;21226;-78
2021/05/25 01:16:18;;;;;;;38.92;28.20;;;;;;;14.33;76.02;102209.42;1767777;81;21329;-78
2021/05/25 01:18:50;;;;;;;53.63;37.15;;;;;;;14.40;76.07;102221.30;1768057;81;21211;-75
2021/05/25 01:21:23;;;;;;;87.65;63.08;;;;;;;14.48;76.08;102226.53;1767791;81;21253;-78
2021/05/25 01:23:56;;;;;;;99.10;70.97;;;;;;;14.57;75.81;102221.69;1767775;81;21898;-82
2021/05/25 01:26:28;;;;;;;78.92;58.98;;;;;;;14.63;75.47;102220.69;1767615;81;21404;-78
2021/05/25 01:29:01;;;;;;;59.27;40.05;;;;;;;14.68;75.35;102220.80;1767934;81;21720;-74
2021/05/25 01:31:34;;;;;;;41.42;31.30;;;;;;;14.73;75.15;102214.45;1768097;81;21364;-79
2021/05/25 01:34:07;;;;;;;54.23;37.93;;;;;;;14.73;75.03;102210.25;1769154;81;21391;-80
2021/05/25 01:36:39;;;;;;;52.85;40.05;;;;;;;14.68;75.10;102214.34;1769002;81;21194;-73
2021/05/25 01:39:12;;;;;;;48.75;37.17;;;;;;;14.64;75.14;102214.53;1768906;81;21380;-81
2021/05/25 01:41:45;;;;;;;42.73;32.05;;;;;;;14.65;74.96;102205.03;1767523;81;21258;-82
2021/05/25 01:44:18;;;;;;;24.60;18.48;;;;;;;14.63;74.91;102205.31;1764168;81;21330;-77
2021/05/25 01:46:51;;;;;;;19.37;14.60;;;;;;;14.61;74.81;102210.85;1767997;81;21838;-78
2021/05/25 01:49:27;;;;;;;9.25;7.72;;;;;;;14.58;74.79;102210.80;1768071;81;21682;-72
2021/05/25 01:51:59;;;;;;;14.90;7.12;;;;;;;14.57;74.79;102211.03;1767883;81;21329;-80
2021/05/25 01:54:32;;;;;;;8.83;5.53;;;;;;;14.53;74.75;102205.09;1767725;81;21767;-69
2021/05/25 01:57:05;;;;;;;8.08;4.05;;;;;;;14.54;74.71;102203.17;1767570;81;21373;-77
2021/05/25 01:59:39;;;;;;;8.05;4.17;;;;;;;14.50;74.60;102204.22;1767969;81;21333;-83
2021/05/25 02:02:12;;;;;;;8.53;2.95;;;;;;;14.47;74.62;102201.91;1767909;81;21324;-82
2021/05/25 02:04:45;;;;;;;7.45;3.50;;;;;;;14.45;74.62;102214.42;1765199;81;21328;-69
2021/05/25 02:07:20;;;;;;;11.00;2.95;;;;;;;14.43;74.66;102218.86;1768021;81;21336;-81
2021/05/25 02:09:53;;;;;;;6.58;2.95;;;;;;;14.38;74.63;102214.59;1767742;81;21332;-69
2021/05/25 02:12:27;;;;;;;5.58;2.42;;;;;;;14.36;74.76;102215.94;1767697;81;21324;-79
2021/05/25 02:15:00;;;;;;;9.58;2.55;;;;;;;14.36;74.68;102224.31;1767726;81;21329;-79
2021/05/25 02:17:33;;;;;;;8.95;2.50;;;;;;;14.32;74.71;102216.98;1767901;81;21798;-79
2021/05/25 02:20:07;;;;;;;9.17;2.43;;;;;;;14.28;74.84;102221.89;1767890;81;21341;-81
2021/05/25 02:22:39;;;;;;;20.45;4.15;;;;;;;14.27;74.99;102228.05;1767910;81;22085;-81
2021/05/25 02:25:13;;;;;;;7.53;2.37;;;;;;;14.32;74.97;102232.88;1767892;81;21329;-79
2021/05/25 02:27:45;;;;;;;6.85;2.50;;;;;;;14.34;74.92;102225.09;1769404;81;21850;-81
2021/05/25 02:30:19;;;;;;;16.82;2.72;;;;;;;14.32;74.82;102219.77;1769104;81;21819;-82
2021/05/25 02:32:53;;;;;;;9.10;2.08;;;;;;;14.29;74.91;102224.45;1758231;81;21194;-80
2021/05/25 02:35:25;;;;;;;6.87;1.98;;;;;;;14.28;74.93;102215.77;1750920;81;21356;-76
2021/05/25 02:37:59;;;;;;;5.87;2.05;;;;;;;14.28;74.91;102221.35;1739845;82;21743;-81
2021/05/25 02:40:31;;;;;;;5.35;2.30;;;;;;;14.28;74.80;102223.28;1744265;81;21325;-80
2021/05/25 02:43:04;;;;;;;5.22;2.55;;;;;;;14.27;74.73;102226.64;1769955;80;21336;-80
2021/05/25 02:45:39;;;;;;;6.40;2.55;;;;;;;14.24;74.63;102217.91;1743305;81;21349;-78
2021/05/25 02:48:12;;;;;;;8.28;3.00;;;;;;;14.19;74.71;102217.23;1739501;81;21257;-70
2021/05/25 02:50:44;;;;;;;8.97;3.20;;;;;;;14.18;74.81;102216.07;1763750;81;21866;-74
2021/05/25 02:53:18;;;;;;;5.47;3.30;;;;;;;14.25;74.99;102216.81;1762716;81;21194;-78
2021/05/25 02:55:50;;;;;;;14.93;8.87;;;;;;;14.36;74.94;102213.97;1766029;81;21341;-82
2021/05/25 02:58:23;;;;;;;29.35;21.60;;;;;;;14.49;74.82;102202.49;1743373;81;21182;-83
2021/05/25 03:00:55;;;;;;;26.90;19.02;;;;;;;14.53;74.65;102191.66;1739457;82;21732;-81
2021/05/25 03:03:28;;;;;;;26.87;15.68;;;;;;;14.50;74.77;102194.97;1740933;81;21324;-85
2021/05/25 03:06:00;;;;;;;25.57;16.30;;;;;;;14.48;74.93;102191.02;1756685;81;21212;-83
2021/05/25 03:08:33;;;;;;;22.67;12.35;;;;;;;14.46;75.08;102191.83;1702476;84;21370;-73
2021/05/25 03:11:05;;;;;;;16.95;8.63;;;;;;;14.42;75.35;102186.99;1722612;83;21250;-78
2021/05/25 03:13:38;;;;;;;10.33;5.63;;;;;;;14.39;75.90;102187.47;1719181;83;21214;-79
2021/05/25 03:16:11;;;;;;;15.08;4.80;;;;;;;14.40;76.22;102190.03;1718732;83;21933;-77
2021/05/25 03:18:44;;;;;;;21.73;4.15;;;;;;;14.44;76.41;102188.44;1718569;83;21842;-76
2021/05/25 03:21:16;;;;;;;4.72;3.17;;;;;;;14.48;76.51;102184.59;1718647;83;21216;-76
2021/05/25 03:23:49;;;;;;;5.67;2.85;;;;;;;14.53;76.36;102182.73;1718826;83;21233;-67
2021/05/25 03:26:24;;;;;;;4.40;2.33;;;;;;;14.58;76.13;102194.56;1718586;83;21443;-76
2021/05/25 03:28:56;;;;;;;9.23;1.90;;;;;;;14.62;75.67;102191.04;1731506;82;21200;-69
2021/05/25 03:31:29;;;;;;;5.07;1.87;;;;;;;14.67;75.39;102185.52;1737790;82;21206;-73
2021/05/25 03:34:01;;;;;;;3.50;1.95;;;;;;;14.73;75.26;102192.08;1737999;82;21217;-72
2021/05/25 03:36:34;;;;;;;7.97;2.50;;;;;;;14.79;74.37;102189.67;1741730;82;21340;-79
2021/05/25 03:39:08;;;;;;;4.15;2.15;;;;;;;14.80;74.28;102182.97;1730245;82;21176;-78
2021/05/25 03:41:41;;;;;;;9.73;2.55;;;;;;;14.80;74.28;102182.97;1726922;82;21220;-76
2021/05/25 03:44:14;;;;;;;;;;;;;;;14.81;73.83;102181.33;1741409;82;21422;-78
2021/05/25 03:46:46;;;;;;;7.22;2.75;;;;;;;14.85;73.97;102184.47;1728320;81;20231;-77
2021/05/25 03:49:19;;;;;;;4.37;1.95;;;;;;;14.90;73.75;102181.20;1728235;82;21356;-74
2021/05/25 03:51:52;;;;;;;6.35;1.70;;;;;;;14.95;72.88;102170.64;1735208;82;21587;-84
2021/05/25 03:54:30;;;;;;;;;;;;;;;14.97;72.77;102175.45;1733832;82;21260;-76
2021/05/25 03:58:46;;;;;;;6.30;2.72;;;;;;;14.98;72.85;102176.58;1740327;80;20193;-67
2021/05/25 03:59:44;;;;;;;5.33;2.80;;;;;;;15.00;73.05;102174.94;1716524;82;21261;-78
2021/05/25 04:02:17;;;;;;;12.07;2.90;;;;;;;15.08;73.24;102187.09;1740094;82;21400;-76
2021/05/25 04:04:51;;;;;;;5.47;2.40;;;;;;;15.20;73.27;102187.33;1734214;82;21796;-74
2021/05/25 04:07:23;;;;;;;8.73;2.05;;;;;;;15.36;73.09;102189.31;1731465;82;21210;-73
2021/05/25 04:09:56;;;;;;;9.58;2.30;;;;;;;15.46;71.58;102171.26;1729666;82;21917;-72
2021/05/25 04:12:28;;;;;;;10.23;2.30;;;;;;;15.55;71.39;102179.53;1724466;82;21328;-82
2021/05/25 04:15:02;;;;;;;2.55;1.95;;;;;;;15.71;71.25;102177.81;1727794;82;21273;-78
2021/05/25 04:17:37;;;;;;;4.22;1.82;;;;;;;15.91;70.38;102188.75;1738135;82;21223;-71
2021/05/25 04:20:12;;;;;;;9.35;3.02;;;;;;;16.28;68.77;102184.20;1720044;82;21222;-74
2021/05/25 04:22:47;;;;;;;11.40;2.80;;;;;;;16.28;68.77;102184.20;1712304;83;21412;-79
2021/05/25 04:25:19;;;;;;;10.45;2.70;;;;;;;16.37;68.40;102171.40;1721585;83;21972;-79
2021/05/25 04:27:52;;;;;;;11.05;3.50;;;;;;;16.37;67.61;102172.80;1726528;82;21348;-68
2021/05/25 04:30:24;;;;;;;19.98;4.08;;;;;;;16.33;67.96;102171.66;1714397;83;21353;-70
2021/05/25 04:32:57;;;;;;;14.20;3.93;;;;;;;16.29;68.06;102165.72;1693912;84;21889;-72
2021/05/25 04:35:30;;;;;;;18.73;4.55;;;;;;;16.26;68.16;102169.03;1719689;83;22038;-71
2021/05/25 04:38:03;;;;;;;9.23;3.30;;;;;;;16.25;68.53;102167.34;1694193;84;21206;-69
2021/05/25 04:40:41;;;;;;;23.27;4.78;;;;;;;16.25;68.33;102163.68;1724225;83;21210;-68
2021/05/25 04:43:13;;;;;;;9.85;4.08;;;;;;;16.19;68.53;102158.58;1723966;83;21352;-71
2021/05/25 04:45:47;;;;;;;20.88;4.08;;;;;;;16.16;68.63;102169.47;1724004;83;21352;-71
2021/05/25 04:48:20;;;;;;;12.43;3.95;;;;;;;16.11;68.66;102173.61;1722631;83;21345;-76
2021/05/25 04:50:53;;;;;;;14.07;3.58;;;;;;;16.10;69.07;102180.33;1708520;83;21194;-70
2021/05/25 04:53:25;;;;;;;10.03;4.55;;;;;;;16.08;69.21;102188.12;1693871;84;21890;-71
2021/05/25 04:55:58;;;;;;;10.20;3.15;;;;;;;16.05;69.29;102188.66;1723587;83;21210;-67
2021/05/25 04:58:31;;;;;;;6.12;3.12;;;;;;;16.01;69.45;102188.05;1710670;83;21241;-71
2021/05/25 05:01:03;;;;;;;7.92;2.85;;;;;;;15.95;69.77;102189.91;1718110;83;21222;-73
2021/05/25 05:03:36;;;;;;;13.62;3.67;;;;;;;15.97;70.02;102193.33;1710670;82;21226;-77
2021/05/25 05:06:09;;;;;;;8.78;2.80;;;;;;;16.01;69.94;102188.88;1709885;83;21364;-81
2021/05/25 05:08:44;;;;;;;13.48;2.70;;;;;;;16.02;70.00;102193.94;1697603;84;21186;-82
2021/05/25 05:11:17;;;;;;;14.53;3.22;;;;;;;16.00;70.10;102191.39;1716208;83;21858;-83
2021/05/25 05:13:50;;;;;;;15.18;3.37;;;;;;;16.01;70.27;102203.45;1720508;83;21712;-83
2021/05/25 05:16:22;;;;;;;16.80;4.27;;;;;;;16.04;70.24;102201.81;1692864;84;21553;-84
2021/05/25 05:18:56;;;;;;;21.45;4.72;;;;;;;16.08;70.33;102208.60;1724469;83;21182;-72
2021/05/25 05:21:29;;;;;;;22.82;4.25;;;;;;;16.13;70.48;102215.68;1724434;83;21353;-74
2021/05/25 05:24:02;;;;;;;14.58;3.67;;;;;;;16.20;70.26;102207.06;1724296;83;21395;-82
2021/05/25 05:26:35;;;;;;;15.08;4.78;;;;;;;16.20;70.09;102209.33;1724521;83;21218;-84
2021/05/25 05:29:07;;;;;;;14.50;3.00;;;;;;;16.16;70.04;102210.11;1725029;83;21333;-80
2021/05/25 05:31:42;;;;;;;11.93;3.77;;;;;;;16.16;70.15;102203.94;1716515;83;21262;-84
2021/05/25 05:34:15;;;;;;;6.07;3.83;;;;;;;16.18;69.98;102198.08;1714743;84;21213;-76
2021/05/25 05:36:47;;;;;;;13.70;5.67;;;;;;;16.22;70.30;102202.06;1714668;84;21381;-81
2021/05/25 05:39:20;;;;;;;15.53;4.12;;;;;;;16.51;69.73;102194.60;1714513;84;21383;-73
2021/05/25 05:41:52;;;;;;;5.97;4.20;;;;;;;16.51;69.73;102194.60;1714454;84;21345;-82
2021/05/25 05:44:25;;;;;;;11.10;3.70;;;;;;;16.67;69.66;102202.63;1714714;84;21396;-80
2021/05/25 05:46:57;;;;;;;14.15;4.30;;;;;;;16.74;69.33;102206.07;1750444;82;21337;-84
2021/05/25 05:49:30;;;;;;;5.22;3.90;;;;;;;16.78;69.45;102196.02;1750220;82;21337;-83
2021/05/25 05:52:02;;;;;;;6.30;3.98;;;;;;;16.87;69.43;102202.84;1750194;82;21203;-81
2021/05/25 05:54:35;;;;;;;9.00;4.58;;;;;;;16.93;69.29;102205.45;1750529;80;21388;-83
2021/05/25 05:57:09;;;;;;;13.32;4.37;;;;;;;17.03;69.24;102200.48;1750141;82;21206;-78
2021/05/25 05:59:41;;;;;;;9.83;5.08;;;;;;;17.08;69.07;102192.12;1750253;80;21328;-84
2021/05/25 06:02:15;;;;;;;10.88;4.20;;;;;;;17.15;68.83;102194.14;1750348;82;21336;-80
2021/05/25 06:04:48;;;;;;;13.35;5.28;;;;;;;17.22;68.80;102192.81;1750364;82;21445;-84
2021/05/25 06:07:22;;;;;;;7.37;4.58;;;;;;;17.32;68.60;102190.07;1750343;82;21922;-81
2021/05/25 06:09:56;;;;;;;9.30;5.53;;;;;;;17.40;68.02;102171.38;1750230;82;21357;-85
2021/05/25 06:12:29;;;;;;;13.32;6.30;;;;;;;17.39;67.54;102175.84;1750300;82;21827;-77
2021/05/25 06:15:02;;;;;;;11.48;5.25;;;;;;;17.37;67.98;102174.70;1750473;82;21831;-72
2021/05/25 06:17:38;;;;;;;11.88;4.62;;;;;;;17.47;67.98;102171.12;1750202;82;21336;-82
2021/05/25 06:20:11;;;;;;;8.45;4.60;;;;;;;17.55;67.58;102169.23;1750329;82;21198;-74
2021/05/25 06:22:43;;;;;;;;;;;;;;;17.60;67.57;102180.48;1752909;82;21337;-82
2021/05/25 06:25:17;;;;;;;15.23;6.28;;;;;;;17.64;67.25;102178.84;1750100;82;20251;-83
2021/05/25 06:27:49;;;;;;;9.33;5.33;;;;;;;17.59;66.87;102187.22;1750152;82;21352;-82
2021/05/25 06:30:22;;;;;;;11.87;4.33;;;;;;;17.55;67.04;102180.47;1750370;82;21329;-83
2021/05/25 06:32:55;;;;;;;11.97;4.17;;;;;;;17.54;67.50;102184.38;1761989;81;21747;-78
2021/05/25 06:35:30;;;;;;;8.88;4.47;;;;;;;17.62;67.62;102189.51;1763472;81;21231;-75
2021/05/25 06:38:05;;;;;;;6.05;3.87;;;;;;;17.67;67.25;102193.19;1763401;81;21337;-81
2021/05/25 06:40:38;;;;;;;12.58;4.30;;;;;;;17.68;67.29;102193.47;1763377;81;21365;-81
2021/05/25 06:43:12;;;;;;;;;;;;;;;17.67;66.92;102196.58;1766197;81;21345;-73
2021/05/25 06:45:47;;;;;;;17.60;5.47;;;;;;;17.62;67.09;102198.77;1763342;81;20188;-82
2021/05/25 06:48:19;;;;;;;11.90;5.08;;;;;;;17.65;67.61;102202.45;1764768;81;21840;-78
2021/05/25 06:50:52;;;;;;;10.60;4.20;;;;;;;17.75;67.16;102204.48;1763425;81;21365;-81
2021/05/25 06:53:24;;;;;;;10.53;3.92;;;;;;;17.74;67.01;102188.17;1763553;81;21894;-80
2021/05/25 06:55:57;;;;;;;18.55;4.95;;;;;;;17.85;67.42;102182.91;1763655;81;21214;-79
2021/05/25 06:58:31;;;;;;;8.15;3.98;;;;;;;18.05;67.41;102178.79;1763704;81;21366;-78
2021/05/25 07:01:22;;;;;;;7.80;4.08;;;;;;;18.41;66.94;102185.47;1763734;81;21290;-79
2021/05/25 07:03:54;;;;;;;7.70;4.05;;;;;;;18.89;65.67;102189.26;1763751;81;21254;-81
2021/05/25 07:06:27;;;;;;;5.17;3.25;;;;;;;19.28;64.55;102185.67;1763531;81;21676;-83
2021/05/25 07:09:00;;;;;;;6.50;4.08;;;;;;;19.70;63.74;102206.48;1764996;81;21218;-81
2021/05/25 07:11:33;;;;;;;11.10;4.65;;;;;;;20.08;60.95;102207.28;1765702;81;21329;-68
2021/05/25 07:14:07;;;;;;;5.53;3.15;;;;;;;20.32;59.83;102188.02;1766365;81;21333;-76
2021/05/25 07:16:39;;;;;;;4.70;3.27;;;;;;;20.44;59.58;102188.53;1766806;81;21361;-79
2021/05/25 07:19:12;;;;;;;8.75;3.83;;;;;;;20.56;59.40;102184.80;1766414;81;21287;-78
2021/05/25 07:21:45;;;;;;;4.60;3.10;;;;;;;20.72;58.98;102179.32;1766412;81;21646;-82
2021/05/25 07:24:18;;;;;;;5.97;3.12;;;;;;;20.90;57.99;102163.14;1764951;81;21902;-75
2021/05/25 07:26:51;;;;;;;15.77;5.03;;;;;;;21.01;57.55;102167.58;1763407;81;21344;-79
2021/05/25 07:29:23;;;;;;;7.37;3.17;;;;;;;21.08;57.22;102172.92;1763221;81;21238;-78
2021/05/25 07:31:56;;;;;;;4.53;3.08;;;;;;;21.10;57.40;102174.28;1763607;81;21827;-83
2021/05/25 07:34:30;;;;;;;24.35;4.25;;;;;;;21.33;57.13;102172.12;1763075;81;21338;-83
2021/05/25 07:37:02;;;;;;;;;;;;;;;21.45;56.40;102165.52;1765758;81;21728;-80
2021/05/25 07:39:35;;;;;;;7.35;3.55;;;;;;;21.49;56.46;102182.16;1763371;81;20597;-70
2021/05/25 07:42:08;;;;;;;5.90;3.63;;;;;;;21.46;56.52;102169.20;1763676;81;21354;-76
2021/05/25 07:44:42;;;;;;;6.62;3.58;;;;;;;21.55;56.41;102173.05;1763158;81;21174;-67
2021/05/25 07:47:14;;;;;;;5.10;2.65;;;;;;;21.67;55.97;102167.31;1763272;81;21385;-83
2021/05/25 07:49:47;;;;;;;7.83;3.80;;;;;;;21.80;56.14;102162.37;1764004;81;21218;-75
2021/05/25 07:52:20;;;;;;;7.10;3.30;;;;;;;21.85;55.61;102152.42;1760358;81;21866;-71
2021/05/25 07:54:53;;;;;;;5.08;3.22;;;;;;;21.83;55.56;102160.34;1756453;81;21819;-69
2021/05/25 07:57:25;;;;;;;6.72;3.33;;;;;;;21.84;55.29;102180.44;1761873;81;21163;-80
2021/05/25 07:59:57;;;;;;;5.90;2.98;;;;;;;21.72;54.95;102186.21;1761024;81;21404;-81
2021/05/25 08:02:31;;;;;;;4.80;3.27;;;;;;;21.51;55.30;102177.63;1742313;81;21226;-68
2021/05/25 08:05:04;;;;;;;11.80;3.85;;;;;;;21.37;55.58;102178.02;1746434;82;21689;-72
2021/05/25 08:07:36;;;;;;;;;;;;;;;21.26;56.46;102177.83;1750925;82;21217;-82
2021/05/25 08:10:12;;;;;;;5.90;3.33;;;;;;;21.24;56.47;102178.15;1756169;81;20359;-67
2021/05/25 08:12:45;;;;;;;7.58;3.30;;;;;;;21.21;56.21;102173.07;1755606;81;21209;-65
2021/05/25 08:15:19;;;;;;;16.07;4.42;;;;;;;21.06;56.68;102157.66;1758972;81;21340;-67
2021/05/25 08:20:35;;;;;;;7.55;4.30;;;;;;;21.00;57.16;102157.98;1724101;80;21212;-72
2021/05/25 08:23:11;;;;;;;6.30;3.75;;;;;;;21.05;57.36;102157.39;1761489;81;21386;-64
2021/05/25 08:25:44;;;;;;;7.87;4.47;;;;;;;21.10;56.90;102160.16;1756994;81;21726;-68
2021/05/25 08:28:17;;;;;;;6.65;4.20;;;;;;;21.03;56.75;102155.41;1757113;81;21693;-69
2021/05/25 08:30:50;;;;;;;10.78;5.03;;;;;;;20.92;57.14;102152.97;1761291;81;21220;-67
2021/05/25 08:33:22;;;;;;;;;;;;;;;20.91;57.51;102162.00;1763507;81;21262;-65
2021/05/25 08:35:55;;;;;;;10.85;5.42;;;;;;;20.92;57.38;102167.09;1764129;81;20187;-67
2021/05/25 08:38:27;;;;;;;8.15;4.80;;;;;;;20.84;57.47;102170.52;1761733;81;21267;-69
2021/05/25 08:41:02;;;;;;;8.05;4.30;;;;;;;20.81;57.89;102165.44;1762991;81;21329;-66
2021/05/25 08:43:34;;;;;;;7.05;4.97;;;;;;;20.84;58.15;102154.39;1766433;81;21325;-66
2021/05/25 08:46:07;;;;;;;12.85;6.62;;;;;;;20.87;57.78;102149.58;1761866;81;21343;-67
2021/05/25 08:48:42;;;;;;;13.60;5.95;;;;;;;20.84;57.81;102153.56;1760247;81;21238;-68
2021/05/25 08:51:15;;;;;;;8.98;5.10;;;;;;;20.84;57.80;102154.39;1762172;81;21716;-66
2021/05/25 08:53:48;;;;;;;11.88;5.12;;;;;;;20.83;57.91;102158.36;1769822;81;21333;-66
2021/05/25 08:56:21;;;;;;;7.08;5.58;;;;;;;20.87;58.02;102154.38;1768107;81;21378;-66
2021/05/25 08:58:54;;;;;;;;;;;;;;;20.88;57.79;102154.12;1763697;81;21376;-66
2021/05/25 09:01:27;;;;;;;9.45;5.08;;;;;;;20.87;57.63;102155.78;1754636;81;20191;-67
2021/05/25 09:04:06;;;;;;;10.78;5.58;;;;;;;20.85;58.00;102156.08;1761416;81;21374;-65
2021/05/25 09:06:44;;;;;;;10.43;5.05;;;;;;;20.86;57.90;102145.63;1761504;81;21317;-65
2021/05/25 09:09:19;;;;;;;11.33;5.75;;;;;;;20.88;57.96;102137.73;1764585;81;21223;-66
2021/05/25 09:12:07;;;;;;;8.50;6.65;;;;;;;20.90;58.00;102155.25;1764661;81;21279;-66
2021/05/25 09:14:50;;;;;;;12.35;8.13;;;;;;;20.80;57.69;102160.92;1752882;81;21183;-66
2021/05/25 09:17:25;;;;;;;9.70;6.70;;;;;;;20.72;57.90;102158.73;1758618;81;21194;-68
2021/05/25 09:20:00;;;;;;;9.63;7.20;;;;;;;20.67;58.11;102151.70;1759449;81;21654;-67
2021/05/25 09:22:40;;;;;;;9.60;7.05;;;;;;;20.71;58.53;102165.48;1759438;81;21336;-66
2021/05/25 09:25:23;;;;;;;9.35;6.62;;;;;;;20.80;58.94;102160.92;1760895;81;21194;-65
2021/05/25 09:30:37;;;;;;;11.40;7.33;;;;;;;20.92;58.69;102154.38;1758250;81;21224;-67
2021/05/25 09:33:10;;;;;;;11.63;7.97;;;;;;;21.00;58.38;102151.78;1762229;81;21451;-65
2021/05/25 09:35:46;;;;;;;10.90;7.90;;;;;;;21.02;57.92;102145.25;1755388;81;21822;-66
2021/05/25 09:38:22;;;;;;;11.57;7.97;;;;;;;20.98;57.85;102136.25;1761256;81;21376;-67
2021/05/25 09:41:00;;;;;;;12.58;8.53;;;;;;;20.97;57.71;102138.81;1759177;81;22468;-67
2021/05/25 09:43:34;;;;;;;11.75;8.18;;;;;;;20.97;57.88;102136.81;1761866;81;21157;-68
2021/05/25 09:46:14;;;;;;;14.58;8.43;;;;;;;21.02;58.04;102126.06;1757280;81;21310;-67
2021/05/25 09:48:52;;;;;;;13.78;9.25;;;;;;;21.11;57.94;102115.24;1757139;81;21184;-68
2021/05/25 09:51:30;;;;;;;11.08;8.63;;;;;;;21.20;57.57;102126.17;1757375;81;21375;-68
2021/05/25 09:54:05;;;;;;;16.60;9.15;;;;;;;21.19;57.24;102112.33;1758961;81;21226;-65
2021/05/25 09:56:37;;;;;;;;;;;;;;;21.15;57.28;102105.02;1758445;81;21239;-65
2021/05/25 09:59:10;;;;;;;11.15;9.00;;;;;;;21.14;57.37;102110.95;1758802;81;20290;-64
2021/05/25 10:01:44;;;;;;;12.78;8.93;;;;;;;21.16;57.83;102109.52;1720078;81;21239;-67
2021/05/25 10:04:18;;;;;;;16.13;8.87;;;;;;;21.24;57.73;102105.22;1761082;81;21334;-68
2021/05/25 10:06:51;;;;;;;23.70;15.00;;;;;;;21.31;57.56;102097.23;1756888;81;21161;-68
2021/05/25 10:09:25;;;;;;;22.70;11.57;;;;;;;21.42;57.59;102098.27;1756792;81;21183;-72
2021/05/25 10:11:59;;;;;;;15.85;10.35;;;;;;;21.51;57.25;102087.16;1757257;81;21997;-67
2021/05/25 10:14:32;;;;;;;;;;;;;;;21.57;57.11;102081.72;1761784;80;21278;-71
2021/05/25 10:17:04;;;;;;;13.90;11.12;;;;;;;21.55;56.39;102078.33;1756925;81;20260;-80
2021/05/25 10:19:37;;;;;;;13.32;10.15;;;;;;;21.55;56.45;102085.39;1759464;80;21376;-73
2021/05/25 10:22:11;;;;;;;13.33;9.97;;;;;;;21.52;56.21;102079.77;1758997;81;21353;-81
2021/05/25 10:24:45;;;;;;;22.05;12.43;;;;;;;21.48;56.28;102073.05;1758837;80;21834;-69
2021/05/25 10:27:17;;;;;;;19.97;10.17;;;;;;;21.42;56.17;102051.63;1762770;81;21208;-85
2021/05/25 10:29:50;;;;;;;;;;;;;;;21.37;56.48;102036.68;1770356;81;21189;-69
2021/05/25 10:32:24;;;;;;;17.15;10.08;;;;;;;21.39;57.08;102044.31;1767998;81;20248;-78
2021/05/25 10:34:57;;;;;;;15.32;9.30;;;;;;;21.41;56.96;102038.64;1767697;81;21778;-79
2021/05/25 10:37:29;;;;;;;18.32;10.28;;;;;;;21.42;56.92;102033.25;1772726;81;21388;-69
2021/05/25 10:40:03;;;;;;;18.62;9.53;;;;;;;21.44;56.92;102035.75;1773174;81;21449;-75
2021/05/25 10:42:37;;;;;;;13.43;7.60;;;;;;;21.47;57.05;102030.92;1715374;81;21822;-68
2021/05/25 10:45:15;;;;;;;9.98;6.72;;;;;;;21.47;57.14;102029.52;1759880;81;21331;-66
2021/05/25 10:48:07;;;;;;;15.60;8.13;;;;;;;21.42;57.49;102026.18;1767141;81;21165;-68
2021/05/25 10:50:46;;;;;;;12.65;7.10;;;;;;;21.44;57.38;102023.03;1760169;81;21444;-65
2021/05/25 10:55:57;;;;;;;12.50;9.53;;;;;;;21.31;57.39;102018.95;1761638;81;21374;-65
2021/05/25 10:58:35;;;;;;;19.00;9.25;;;;;;;21.24;57.09;102004.89;1765205;81;21334;-66
2021/05/25 11:01:09;;;;;;;11.95;7.40;;;;;;;21.13;57.28;102018.84;1760118;81;21323;-67
2021/05/25 11:03:46;;;;;;;14.53;7.90;;;;;;;21.08;57.56;102015.52;1760016;81;21840;-65
2021/05/25 11:06:31;;;;;;;12.33;8.78;;;;;;;21.11;57.47;102014.08;1763414;81;21320;-65
2021/05/25 11:09:24;;;;;;;10.93;7.30;;;;;;;21.08;57.26;102009.04;1770260;81;21395;-67
2021/05/25 11:12:13;;;;;;;15.08;7.65;;;;;;;21.09;57.51;102015.78;1768326;81;21333;-67
2021/05/25 11:15:18;;;;;;;12.07;6.35;;;;;;;21.13;57.40;102002.75;1770526;81;21381;-66
2021/05/25 11:17:51;;;;;;;16.30;7.28;;;;;;;21.18;57.53;102000.44;1765724;81;21218;-66
2021/05/25 11:20:39;;;;;;;10.00;6.25;;;;;;;21.24;57.64;101999.24;1767366;81;21408;-67
2021/05/25 11:23:38;;;;;;;12.95;6.80;;;;;;;21.30;57.55;102003.14;1764748;81;21387;-67
2021/05/25 11:26:13;;;;;;;9.98;6.40;;;;;;;21.33;57.53;101999.70;1759298;80;21271;-67
2021/05/25 11:29:21;;;;;;;8.85;6.15;;;;;;;21.35;57.71;101994.61;1765555;81;21220;-68
2021/05/25 11:31:57;;;;;;;15.55;7.35;;;;;;;21.36;57.25;101989.77;1757873;81;21187;-66
2021/05/25 11:34:29;;;;;;;9.70;6.42;;;;;;;21.33;57.06;102001.70;1765597;81;21826;-66
2021/05/25 11:37:08;;;;;;;10.80;6.45;;;;;;;21.29;56.60;101992.13;1763895;81;21251;-68
2021/05/25 11:39:42;;;;;;;9.83;5.40;;;;;;;21.27;55.74;101989.59;1763047;81;21342;-67
2021/05/25 11:42:15;;;;;;;4.97;4.35;;;;;;;21.26;55.46;101988.47;1766930;81;21178;-68
2021/05/25 11:44:47;;;;;;;10.05;5.42;;;;;;;21.25;55.22;101982.55;1764147;81;21313;-67
2021/05/25 11:47:20;;;;;;;5.62;4.50;;;;;;;21.26;55.17;101981.41;1768331;81;21328;-67
2021/05/25 11:49:55;;;;;;;13.60;5.47;;;;;;;21.33;55.52;101980.50;1767487;81;21297;-68
2021/05/25 11:52:39;;;;;;;7.80;5.97;;;;;;;21.40;55.52;101983.21;1763800;81;21308;-67
2021/05/25 11:55:14;;;;;;;9.20;5.92;;;;;;;21.46;55.03;101984.84;1768939;81;21328;-67
2021/05/25 11:57:51;;;;;;;14.53;6.25;;;;;;;21.39;54.85;101986.36;1761766;81;21269;-67
2021/05/25 12:00:27;;;;;;;6.42;5.10;;;;;;;21.28;55.38;101983.38;1761312;81;21382;-67
2021/05/25 12:03:02;;;;;;;7.35;5.80;;;;;;;21.27;55.50;101987.35;1767740;81;21360;-65
2021/05/25 12:05:34;;;;;;;8.40;5.45;;;;;;;21.28;55.65;101986.20;1765225;81;21310;-66
2021/05/25 12:08:10;;;;;;;8.00;4.53;;;;;;;21.30;55.37;101982.50;1764974;81;21183;-69